Time;durP1;ratioP1;P1;durP2;ratioP2;P2;SDS_P1;SDS_P2;PMS_P1;PMS_P2;Temp;Humidity;BMP_temperature;BMP_pressure;BME280_temperature;BME280_humidity;BME280_pressure;Samples;Min_cycle;Max_cycle;Signal;HPM_P1;HPM_P2
2021/04/19 00:02:05;;;;;;;24.07;13.23;;;;;;;;;;10288447;28;20321;-67
2021/04/19 00:07:08;;;;;;;21.63;12.43;;;;;;;;;;10288186;28;20291;-69
2021/04/19 00:12:10;;;;;;;21.70;12.33;;;;;;;;;;10289101;28;20227;-67
2021/04/19 00:17:11;;;;;;;21.23;11.77;;;;;;;;;;10285812;28;20253;-67
2021/04/19 00:22:14;;;;;;;20.93;10.87;;;;;;;;;;10289606;28;20255;-67
2021/04/19 00:27:19;;;;;;;23.07;13.83;;;;;;;;;;10286957;28;20204;-67
2021/04/19 00:32:21;;;;;;;24.90;14.17;;;;;;;;;;10280793;28;20235;-66
2021/04/19 00:37:23;;;;;;;20.20;12.03;;;;;;;;;;10284955;28;20287;-66
2021/04/19 00:42:25;;;;;;;22.17;12.97;;;;;;;;;;10282509;28;20271;-66
2021/04/19 00:47:27;;;;;;;21.53;12.23;;;;;;;;;;10286496;28;20203;-68
2021/04/19 00:52:29;;;;;;;23.20;13.20;;;;;;;;;;10275088;28;20299;-67
2021/04/19 00:57:31;;;;;;;22.33;12.37;;;;;;;;;;10280904;28;20195;-65
2021/04/19 01:02:33;;;;;;;23.43;13.63;;;;;;;;;;10274787;28;20627;-66
2021/04/19 01:07:35;;;;;;;22.47;13.60;;;;;;;;;;10271341;28;20231;-66
2021/04/19 01:12:37;;;;;;;21.30;12.47;;;;;;;;;;10279124;28;20243;-66
2021/04/19 01:17:38;;;;;;;22.97;13.43;;;;;;;;;;10281407;28;20681;-66
2021/04/19 01:22:42;;;;;;;21.23;11.47;;;;;;;;;;10277850;28;20220;-67
2021/04/19 01:27:43;;;;;;;22.27;12.60;;;;;;;;;;10284732;28;20227;-67
2021/04/19 01:32:46;;;;;;;23.03;12.73;;;;;;;;;;10283919;28;20295;-67
2021/04/19 01:37:49;;;;;;;22.77;12.17;;;;;;;;;;10281360;28;20353;-66
2021/04/19 01:42:51;;;;;;;22.03;12.93;;;;;;;;;;10284761;28;20553;-67
2021/04/19 01:47:53;;;;;;;22.13;12.83;;;;;;;;;;10276403;28;20620;-68
2021/04/19 01:52:57;;;;;;;20.07;11.97;;;;;;;;;;10282416;28;20218;-66
2021/04/19 01:58:00;;;;;;;21.77;12.20;;;;;;;;;;10278918;28;20192;-67
2021/04/19 02:03:09;;;;;;;22.87;13.43;;;;;;;;;;10282460;28;20196;-66
2021/04/19 02:08:15;;;;;;;23.30;14.00;;;;;;;;;;10278790;28;20563;-67
2021/04/19 02:13:17;;;;;;;22.10;13.20;;;;;;;;;;10278192;28;20260;-69
2021/04/19 02:18:22;;;;;;;22.97;13.27;;;;;;;;;;10275061;28;20204;-68
2021/04/19 02:23:26;;;;;;;20.00;11.13;;;;;;;;;;10282800;28;20301;-67
2021/04/19 02:28:29;;;;;;;19.17;10.50;;;;;;;;;;10280866;28;20218;-68
2021/04/19 02:33:32;;;;;;;25.20;14.07;;;;;;;;;;10275633;28;20663;-67
2021/04/19 02:38:36;;;;;;;22.83;12.67;;;;;;;;;;10282430;28;20222;-67
2021/04/19 02:43:39;;;;;;;21.80;12.40;;;;;;;;;;10278197;28;20196;-68
2021/04/19 02:48:42;;;;;;;21.03;12.47;;;;;;;;;;10280556;28;20219;-68
2021/04/19 02:53:47;;;;;;;21.17;12.20;;;;;;;;;;10279384;28;20227;-67
2021/04/19 02:58:50;;;;;;;22.07;12.70;;;;;;;;;;10275862;28;20224;-65
2021/04/19 03:03:53;;;;;;;20.97;12.17;;;;;;;;;;10279897;28;20184;-67
2021/04/19 03:08:58;;;;;;;22.37;13.43;;;;;;;;;;10280317;28;20282;-67
2021/04/19 03:14:01;;;;;;;22.70;12.50;;;;;;;;;;10273944;28;20239;-68
2021/04/19 03:19:05;;;;;;;21.87;11.40;;;;;;;;;;10281097;28;20211;-68
2021/04/19 03:24:09;;;;;;;22.60;12.67;;;;;;;;;;10279700;28;20202;-68
2021/04/19 03:29:14;;;;;;;20.03;11.40;;;;;;;;;;10288777;28;20584;-68
2021/04/19 03:34:18;;;;;;;21.20;11.77;;;;;;;;;;10285046;28;20217;-66
2021/04/19 03:39:22;;;;;;;22.63;13.57;;;;;;;;;;10288850;28;20246;-67
2021/04/19 03:44:25;;;;;;;23.53;14.13;;;;;;;;;;10285751;28;20194;-67
2021/04/19 03:49:27;;;;;;;22.57;13.37;;;;;;;;;;10284750;28;20259;-68
2021/04/19 03:54:32;;;;;;;23.90;13.67;;;;;;;;;;10285967;28;20299;-67
2021/04/19 03:59:35;;;;;;;24.63;13.03;;;;;;;;;;10282949;28;20679;-66
2021/04/19 04:04:40;;;;;;;22.00;13.10;;;;;;;;;;10284745;28;20278;-67
2021/04/19 04:09:43;;;;;;;19.67;10.87;;;;;;;;;;10283654;28;20215;-68
2021/04/19 04:14:48;;;;;;;23.83;13.93;;;;;;;;;;10282772;28;20684;-68
2021/04/19 04:19:50;;;;;;;22.73;13.10;;;;;;;;;;10283088;28;20211;-68
2021/04/19 04:24:53;;;;;;;23.33;13.27;;;;;;;;;;10279515;28;20247;-69
2021/04/19 04:29:54;;;;;;;24.20;14.10;;;;;;;;;;10274348;28;20216;-68
2021/04/19 04:34:56;;;;;;;23.03;13.27;;;;;;;;;;10262939;28;20318;-67
2021/04/19 04:39:58;;;;;;;24.07;12.83;;;;;;;;;;10274345;28;20207;-68
2021/04/19 04:45:00;;;;;;;20.97;11.03;;;;;;;;;;10273409;28;20196;-68
2021/04/19 04:50:07;;;;;;;25.33;13.50;;;;;;;;;;10275353;28;20216;-69
2021/04/19 04:55:12;;;;;;;23.60;13.67;;;;;;;;;;10277238;28;20323;-68
2021/04/19 05:00:19;;;;;;;24.20;13.37;;;;;;;;;;10275377;28;20227;-68
2021/04/19 05:05:21;;;;;;;25.17;13.17;;;;;;;;;;10273791;28;20391;-67
2021/04/19 05:10:24;;;;;;;24.53;14.47;;;;;;;;;;10274928;28;20373;-69
2021/04/19 05:15:26;;;;;;;23.90;12.80;;;;;;;;;;10282819;28;20559;-69
2021/04/19 05:20:28;;;;;;;26.63;14.13;;;;;;;;;;10277715;28;20274;-68
2021/04/19 05:25:31;;;;;;;23.00;13.80;;;;;;;;;;10279284;28;20227;-69
2021/04/19 05:30:33;;;;;;;24.10;13.70;;;;;;;;;;10284532;28;20734;-68
2021/04/19 05:35:35;;;;;;;22.50;12.27;;;;;;;;;;10302726;28;20668;-67
2021/04/19 05:40:38;;;;;;;21.63;12.20;;;;;;;;;;10289846;28;20656;-68
2021/04/19 05:45:41;;;;;;;23.47;13.77;;;;;;;;;;10281603;28;20295;-67
2021/04/19 05:50:45;;;;;;;21.27;13.53;;;;;;;;;;10279443;28;20307;-67
2021/04/19 05:55:48;;;;;;;22.23;13.43;;;;;;;;;;10281849;28;20215;-67
2021/04/19 06:00:52;;;;;;;22.40;12.83;;;;;;;;;;10277541;28;20245;-68
2021/04/19 06:05:56;;;;;;;23.13;13.40;;;;;;;;;;10268706;28;20216;-68
2021/04/19 06:11:02;;;;;;;23.53;13.43;;;;;;;;;;10284291;28;20227;-67
2021/04/19 06:16:04;;;;;;;22.37;12.87;;;;;;;;;;10275558;28;20227;-70
2021/04/19 06:21:07;;;;;;;21.87;13.10;;;;;;;;;;10271440;28;20254;-68
2021/04/19 06:26:09;;;;;;;21.70;13.23;;;;;;;;;;10274059;28;20199;-69
2021/04/19 06:31:11;;;;;;;23.20;13.73;;;;;;;;;;10245062;28;20751;-71
2021/04/19 06:36:13;;;;;;;21.77;13.10;;;;;;;;;;10258249;28;20208;-74
2021/04/19 06:41:16;;;;;;;23.13;13.97;;;;;;;;;;10275321;28;20226;-72
2021/04/19 06:46:17;;;;;;;22.03;12.67;;;;;;;;;;10272048;28;20277;-72
2021/04/19 06:51:20;;;;;;;22.20;13.27;;;;;;;;;;10275326;28;20235;-71
2021/04/19 06:56:23;;;;;;;22.67;13.47;;;;;;;;;;10269024;28;20224;-71
2021/04/19 07:01:27;;;;;;;20.40;12.80;;;;;;;;;;10267857;28;20219;-71
2021/04/19 07:06:31;;;;;;;21.40;13.77;;;;;;;;;;10267322;28;20466;-71
2021/04/19 07:11:36;;;;;;;19.53;12.27;;;;;;;;;;10291991;28;20310;-71
2021/04/19 07:16:38;;;;;;;20.33;12.73;;;;;;;;;;10273828;28;20302;-72
2021/04/19 07:21:41;;;;;;;20.33;12.70;;;;;;;;;;10275870;28;20729;-71
2021/04/19 07:26:43;;;;;;;21.10;13.53;;;;;;;;;;10270629;28;20820;-72
2021/04/19 07:31:46;;;;;;;22.07;13.73;;;;;;;;;;10273428;28;20220;-71
2021/04/19 07:36:49;;;;;;;20.80;13.03;;;;;;;;;;10263534;28;20223;-70
2021/04/19 07:41:53;;;;;;;22.30;13.00;;;;;;;;;;10275409;28;20227;-72
2021/04/19 07:46:59;;;;;;;21.47;12.83;;;;;;;;;;10277974;28;20196;-72
2021/04/19 07:52:08;;;;;;;22.40;13.40;;;;;;;;;;10274544;28;20239;-71
2021/04/19 07:57:12;;;;;;;19.00;13.23;;;;;;;;;;10271146;28;20299;-72
2021/04/19 08:02:16;;;;;;;18.53;12.17;;;;;;;;;;10276187;28;20298;-72
2021/04/19 08:07:18;;;;;;;18.13;12.37;;;;;;;;;;10270717;28;20207;-71
2021/04/19 08:12:30;;;;;;;20.20;12.33;;;;;;;;;;10274809;28;20227;-71
2021/04/19 08:17:32;;;;;;;18.60;12.60;;;;;;;;;;10275934;28;20196;-71
2021/04/19 08:22:45;;;;;;;16.57;10.93;;;;;;;;;;10280990;28;20246;-72
2021/04/19 08:27:48;;;;;;;17.20;11.83;;;;;;;;;;10283151;28;20197;-72
2021/04/19 08:32:50;;;;;;;17.80;12.60;;;;;;;;;;10281406;28;20220;-69
2021/04/19 08:37:52;;;;;;;16.93;12.57;;;;;;;;;;10279458;28;20200;-70
2021/04/19 08:42:54;;;;;;;17.43;12.77;;;;;;;;;;10282547;28;20208;-70
2021/04/19 08:47:56;;;;;;;17.17;11.83;;;;;;;;;;10284710;28;20271;-72
2021/04/19 08:52:58;;;;;;;17.87;12.03;;;;;;;;;;10284302;28;20319;-71
2021/04/19 08:58:05;;;;;;;20.27;12.77;;;;;;;;;;10278642;28;20282;-71
2021/04/19 09:03:07;;;;;;;19.30;12.70;;;;;;;;;;10279712;28;20282;-72
2021/04/19 09:08:10;;;;;;;24.87;14.10;;;;;;;;;;10279622;28;20817;-71
2021/04/19 09:13:24;;;;;;;20.30;12.90;;;;;;;;;;10282842;28;20223;-72
2021/04/19 09:18:26;;;;;;;16.33;11.00;;;;;;;;;;10276269;28;20203;-72
2021/04/19 09:23:31;;;;;;;16.00;10.40;;;;;;;;;;10269039;28;20609;-71
2021/04/19 09:28:59;;;;;;;16.63;10.13;;;;;;;;;;10272577;28;20192;-71
2021/04/19 09:34:11;;;;;;;16.23;10.80;;;;;;;;;;10280843;28;20214;-73
2021/04/19 09:39:33;;;;;;;16.33;10.93;;;;;;;;;;10290840;28;20219;-72
2021/04/19 09:44:48;;;;;;;15.53;11.20;;;;;;;;;;10275680;28;20225;-72
2021/04/19 09:49:50;;;;;;;14.73;10.98;;;;;;;;;;10272860;28;20215;-72
2021/04/19 09:54:52;;;;;;;16.00;11.57;;;;;;;;;;10273602;28;20216;-71
2021/04/19 09:59:53;;;;;;;16.97;11.67;;;;;;;;;;10274260;28;20216;-71
2021/04/19 10:04:57;;;;;;;18.10;11.77;;;;;;;;;;10282500;28;20198;-72
2021/04/19 10:10:00;;;;;;;16.27;10.50;;;;;;;;;;10279349;28;20282;-73
2021/04/19 10:15:02;;;;;;;15.07;11.17;;;;;;;;;;10277750;28;20211;-72
2021/04/19 10:20:14;;;;;;;17.47;10.73;;;;;;;;;;10270331;28;20215;-71
2021/04/19 10:25:16;;;;;;;17.77;11.37;;;;;;;;;;10279655;28;20283;-72
2021/04/19 10:30:19;;;;;;;15.80;11.10;;;;;;;;;;10273145;28;20259;-72
2021/04/19 10:35:31;;;;;;;17.10;10.73;;;;;;;;;;10278228;28;20231;-72
2021/04/19 10:40:56;;;;;;;15.43;10.60;;;;;;;;;;10270264;28;20330;-71
2021/04/19 10:45:58;;;;;;;14.40;9.57;;;;;;;;;;10277763;28;20557;-71
2021/04/19 10:51:15;;;;;;;13.00;9.17;;;;;;;;;;10276808;28;20584;-73
2021/04/19 10:56:22;;;;;;;12.10;8.57;;;;;;;;;;10272681;28;20263;-72
2021/04/19 11:01:25;;;;;;;10.95;7.47;;;;;;;;;;10277340;28;20688;-72
2021/04/19 11:06:27;;;;;;;12.73;9.05;;;;;;;;;;10277430;28;20218;-71
2021/04/19 11:11:38;;;;;;;12.40;8.98;;;;;;;;;;10274034;28;20300;-71
2021/04/19 11:17:07;;;;;;;13.30;8.40;;;;;;;;;;10277216;28;20254;-70
2021/04/19 11:22:20;;;;;;;12.57;8.35;;;;;;;;;;10244520;28;20242;-71
2021/04/19 11:27:41;;;;;;;12.13;8.25;;;;;;;;;;10278299;28;20275;-71
2021/04/19 11:32:43;;;;;;;12.57;9.45;;;;;;;;;;10272306;28;20329;-71
2021/04/19 11:37:45;;;;;;;12.48;9.50;;;;;;;;;;10275635;28;20196;-69
2021/04/19 11:42:47;;;;;;;12.25;8.73;;;;;;;;;;10279486;28;20294;-71
2021/04/19 11:47:48;;;;;;;12.55;8.93;;;;;;;;;;10288254;28;20291;-70
2021/04/19 11:52:51;;;;;;;11.32;8.13;;;;;;;;;;10288146;28;20326;-70
2021/04/19 11:57:52;;;;;;;11.82;7.80;;;;;;;;;;10282651;28;20247;-70
2021/04/19 12:02:54;;;;;;;11.65;7.38;;;;;;;;;;10288756;28;20273;-72
2021/04/19 12:07:57;;;;;;;10.57;7.45;;;;;;;;;;10284030;28;20203;-70
2021/04/19 12:12:58;;;;;;;13.02;8.18;;;;;;;;;;10285272;28;20270;-70
2021/04/19 12:18:00;;;;;;;10.63;7.53;;;;;;;;;;10286582;28;20243;-70
2021/04/19 12:23:03;;;;;;;11.85;7.53;;;;;;;;;;10282550;28;20686;-72
2021/04/19 12:28:04;;;;;;;11.57;7.67;;;;;;;;;;10280330;28;20199;-70
2021/04/19 12:33:06;;;;;;;13.83;7.70;;;;;;;;;;10284677;28;20236;-71
2021/04/19 12:38:09;;;;;;;14.90;9.67;;;;;;;;;;10279714;28;20600;-71
2021/04/19 12:43:11;;;;;;;12.93;8.60;;;;;;;;;;10280664;28;20245;-69
2021/04/19 12:48:13;;;;;;;15.20;9.23;;;;;;;;;;10286252;28;20254;-70
2021/04/19 12:53:15;;;;;;;14.17;8.40;;;;;;;;;;10272540;28;20698;-70
2021/04/19 12:58:17;;;;;;;12.90;8.03;;;;;;;;;;10280704;28;20196;-68
2021/04/19 13:03:18;;;;;;;12.30;7.57;;;;;;;;;;10286039;28;20937;-70
2021/04/19 13:08:20;;;;;;;11.30;6.93;;;;;;;;;;10288429;28;20231;-72
2021/04/19 13:13:22;;;;;;;11.00;6.53;;;;;;;;;;10276546;28;20222;-72
2021/04/19 13:18:24;;;;;;;12.33;7.50;;;;;;;;;;10282719;28;20206;-70
2021/04/19 13:23:26;;;;;;;10.57;6.53;;;;;;;;;;10282625;28;20266;-68
2021/04/19 13:28:28;;;;;;;12.43;7.33;;;;;;;;;;10278774;28;20231;-71
2021/04/19 13:33:30;;;;;;;13.57;8.30;;;;;;;;;;10279964;28;20338;-71
2021/04/19 13:38:32;;;;;;;12.67;8.30;;;;;;;;;;10280768;28;20204;-74
2021/04/19 13:43:34;;;;;;;14.40;8.50;;;;;;;;;;10282058;28;20215;-73
2021/04/19 13:48:36;;;;;;;12.73;8.20;;;;;;;;;;10284677;28;20196;-72
2021/04/19 13:53:41;;;;;;;14.33;8.27;;;;;;;;;;10276634;28;20724;-71
2021/04/19 13:58:47;;;;;;;12.83;8.00;;;;;;;;;;10280946;28;20696;-70
2021/04/19 14:03:48;;;;;;;13.37;8.17;;;;;;;;;;10278062;28;20219;-71
2021/04/19 14:08:52;;;;;;;12.57;7.77;;;;;;;;;;10275249;28;20227;-70
2021/04/19 14:13:53;;;;;;;13.30;7.73;;;;;;;;;;10280864;28;20635;-70
2021/04/19 14:18:55;;;;;;;13.33;8.00;;;;;;;;;;10275327;28;20220;-71
2021/04/19 14:23:58;;;;;;;14.03;9.07;;;;;;;;;;10283835;28;20207;-70
2021/04/19 14:28:59;;;;;;;14.80;8.70;;;;;;;;;;10285252;28;20723;-72
2021/04/19 14:34:01;;;;;;;16.90;9.37;;;;;;;;;;10272593;28;20227;-71
2021/04/19 14:39:04;;;;;;;17.33;10.20;;;;;;;;;;10277163;28;20234;-72
2021/04/19 14:44:06;;;;;;;12.33;6.67;;;;;;;;;;10282521;28;20188;-72
2021/04/19 14:49:07;;;;;;;11.87;7.10;;;;;;;;;;10283671;28;20302;-72
2021/04/19 14:54:11;;;;;;;7.53;3.50;;;;;;;;;;10264780;28;20262;-72
2021/04/19 14:59:12;;;;;;;18.67;9.27;;;;;;;;;;10273527;28;20224;-70
2021/04/19 15:04:14;;;;;;;17.13;9.33;;;;;;;;;;10276617;28;20564;-70
2021/04/19 15:09:18;;;;;;;18.27;10.33;;;;;;;;;;10281116;28;20663;-71
2021/04/19 15:14:20;;;;;;;17.43;8.97;;;;;;;;;;10272743;28;20213;-72
2021/04/19 15:19:22;;;;;;;18.50;8.73;;;;;;;;;;10277980;28;20712;-73
2021/04/19 15:24:25;;;;;;;21.00;11.60;;;;;;;;;;10293897;28;20191;-73
2021/04/19 15:29:27;;;;;;;7.73;3.50;;;;;;;;;;10291117;28;20227;-72
2021/04/19 15:34:29;;;;;;;23.40;12.23;;;;;;;;;;10288794;28;20212;-73
2021/04/19 15:39:31;;;;;;;21.70;10.23;;;;;;;;;;10283294;28;20243;-73
2021/04/19 15:44:33;;;;;;;29.93;13.33;;;;;;;;;;10289482;28;20676;-70
2021/04/19 15:49:35;;;;;;;11.70;5.53;;;;;;;;;;10288074;28;20608;-71
2021/04/19 15:54:38;;;;;;;13.17;5.73;;;;;;;;;;10287243;28;20847;-70
2021/04/19 15:59:39;;;;;;;17.70;10.90;;;;;;;;;;10289402;28;20312;-71
2021/04/19 16:04:41;;;;;;;13.47;6.33;;;;;;;;;;10285150;28;20198;-72
2021/04/19 16:09:43;;;;;;;12.43;7.20;;;;;;;;;;10276649;28;20219;-72
2021/04/19 16:14:45;;;;;;;15.07;8.60;;;;;;;;;;10274646;28;20738;-73
2021/04/19 16:19:46;;;;;;;12.47;6.57;;;;;;;;;;10278723;28;20207;-72
2021/04/19 16:24:49;;;;;;;12.53;6.67;;;;;;;;;;10279926;28;20262;-72
2021/04/19 16:29:50;;;;;;;12.93;6.67;;;;;;;;;;10282885;28;20254;-73
2021/04/19 16:34:52;;;;;;;11.07;5.63;;;;;;;;;;10304599;28;20204;-75
2021/04/19 16:39:54;;;;;;;11.87;7.10;;;;;;;;;;10319430;28;20649;-74
2021/04/19 16:44:56;;;;;;;12.37;7.20;;;;;;;;;;10309419;28;20649;-72
2021/04/19 16:49:57;;;;;;;13.40;7.40;;;;;;;;;;10286095;28;20223;-70
2021/04/19 16:55:00;;;;;;;12.07;6.90;;;;;;;;;;10287055;28;20219;-74
2021/04/19 17:00:02;;;;;;;13.17;7.40;;;;;;;;;;10281731;28;20668;-74
2021/04/19 17:05:08;;;;;;;8.13;4.40;;;;;;;;;;10282330;28;20202;-74
2021/04/19 17:10:10;;;;;;;15.57;7.77;;;;;;;;;;10286527;28;20231;-73
2021/04/19 17:15:13;;;;;;;13.90;8.10;;;;;;;;;;10285475;28;20271;-74
2021/04/19 17:20:16;;;;;;;14.93;8.17;;;;;;;;;;10287101;28;20279;-72
2021/04/19 17:25:18;;;;;;;13.07;7.60;;;;;;;;;;10285010;28;20615;-73
2021/04/19 17:30:21;;;;;;;12.17;7.33;;;;;;;;;;10279360;28;20235;-71
2021/04/19 17:35:23;;;;;;;12.10;7.00;;;;;;;;;;10286432;28;20208;-72
2021/04/19 17:40:26;;;;;;;12.70;6.30;;;;;;;;;;10285158;28;20702;-74
2021/04/19 17:45:28;;;;;;;12.23;6.33;;;;;;;;;;10283802;28;20240;-74
2021/04/19 17:50:30;;;;;;;13.43;7.60;;;;;;;;;;10284950;28;20223;-74
2021/04/19 17:55:33;;;;;;;12.27;6.90;;;;;;;;;;10276183;28;20216;-73
2021/04/19 18:00:34;;;;;;;13.00;7.40;;;;;;;;;;10282905;28;21251;-72
2021/04/19 18:05:36;;;;;;;14.83;8.47;;;;;;;;;;10283013;28;20234;-72
2021/04/19 18:10:38;;;;;;;14.53;8.03;;;;;;;;;;10286081;28;20302;-72
2021/04/19 18:15:40;;;;;;;12.97;6.67;;;;;;;;;;10281859;28;20278;-72
2021/04/19 18:20:42;;;;;;;11.93;6.80;;;;;;;;;;10280720;28;20277;-73
2021/04/19 18:25:44;;;;;;;11.13;6.03;;;;;;;;;;10283756;28;20192;-73
2021/04/19 18:30:47;;;;;;;12.40;6.83;;;;;;;;;;10283856;28;20235;-72
2021/04/19 18:35:49;;;;;;;14.17;7.30;;;;;;;;;;10276882;28;20242;-70
2021/04/19 18:40:51;;;;;;;14.57;7.30;;;;;;;;;;10281901;28;20215;-71
2021/04/19 18:45:55;;;;;;;13.43;7.53;;;;;;;;;;10279344;28;20200;-73
2021/04/19 18:50:57;;;;;;;11.90;6.70;;;;;;;;;;10279274;28;20211;-73
2021/04/19 18:56:00;;;;;;;14.30;7.93;;;;;;;;;;10278988;28;20363;-72
2021/04/19 19:01:02;;;;;;;12.70;7.03;;;;;;;;;;10295879;28;20242;-73
2021/04/19 19:06:04;;;;;;;12.67;7.20;;;;;;;;;;10283255;28;20206;-71
2021/04/19 19:11:07;;;;;;;12.70;7.63;;;;;;;;;;10277189;28;20216;-70
2021/04/19 19:16:09;;;;;;;13.80;8.37;;;;;;;;;;10281674;28;20215;-72
2021/04/19 19:21:11;;;;;;;13.33;8.23;;;;;;;;;;10274402;28;20238;-74
2021/04/19 19:26:15;;;;;;;14.63;8.80;;;;;;;;;;10283109;28;20203;-73
2021/04/19 19:31:18;;;;;;;15.60;8.30;;;;;;;;;;10268666;28;20699;-73
2021/04/19 19:36:19;;;;;;;15.63;8.90;;;;;;;;;;10276695;28;20243;-72
2021/04/19 19:41:22;;;;;;;15.23;9.17;;;;;;;;;;10280080;28;20782;-74
2021/04/19 19:46:24;;;;;;;14.30;8.30;;;;;;;;;;10275084;28;20200;-74
2021/04/19 19:51:26;;;;;;;13.40;8.07;;;;;;;;;;10271348;28;20266;-75
2021/04/19 19:56:28;;;;;;;14.80;8.23;;;;;;;;;;10269929;28;20247;-75
2021/04/19 20:01:29;;;;;;;15.17;7.93;;;;;;;;;;10273552;28;20239;-73
2021/04/19 20:06:31;;;;;;;15.23;8.17;;;;;;;;;;10279636;28;20204;-73
2021/04/19 20:11:34;;;;;;;14.03;8.10;;;;;;;;;;10294133;28;20264;-74
2021/04/19 20:16:36;;;;;;;14.17;8.10;;;;;;;;;;10278904;28;20207;-71
2021/04/19 20:21:37;;;;;;;15.37;8.70;;;;;;;;;;10270766;28;20218;-71
2021/04/19 20:26:40;;;;;;;14.10;8.20;;;;;;;;;;10280866;28;20675;-77
2021/04/19 20:31:42;;;;;;;14.47;8.07;;;;;;;;;;10281756;28;20227;-74
2021/04/19 20:36:43;;;;;;;13.47;7.83;;;;;;;;;;10276693;28;20243;-74
2021/04/19 20:41:47;;;;;;;16.70;10.33;;;;;;;;;;10278475;28;20948;-74
2021/04/19 20:46:49;;;;;;;14.20;7.10;;;;;;;;;;10281600;28;20186;-73
2021/04/19 20:51:52;;;;;;;16.43;9.03;;;;;;;;;;10274895;28;20506;-73
2021/04/19 20:56:57;;;;;;;15.70;9.10;;;;;;;;;;10278271;28;20331;-73
2021/04/19 21:01:58;;;;;;;15.97;9.60;;;;;;;;;;10285282;28;20222;-74
2021/04/19 21:07:00;;;;;;;17.03;9.00;;;;;;;;;;10273134;28;20242;-73
2021/04/19 21:12:03;;;;;;;15.73;8.93;;;;;;;;;;10270594;28;20219;-72
2021/04/19 21:17:05;;;;;;;17.33;10.13;;;;;;;;;;10278394;28;20234;-72
2021/04/19 21:22:07;;;;;;;16.17;9.20;;;;;;;;;;10279431;28;20223;-73
2021/04/19 21:27:09;;;;;;;14.67;8.03;;;;;;;;;;10278330;28;20636;-73
2021/04/19 21:32:11;;;;;;;17.20;8.47;;;;;;;;;;10277884;28;20254;-73
2021/04/19 21:37:13;;;;;;;14.87;9.03;;;;;;;;;;10279118;28;20316;-74
2021/04/19 21:42:16;;;;;;;16.93;8.50;;;;;;;;;;10272185;28;20341;-74
2021/04/19 21:47:18;;;;;;;17.07;10.03;;;;;;;;;;10279474;28;20275;-74
2021/04/19 21:52:19;;;;;;;16.50;10.07;;;;;;;;;;10270408;28;20224;-73
2021/04/19 21:57:22;;;;;;;16.80;10.00;;;;;;;;;;10278125;28;20331;-72
2021/04/19 22:02:24;;;;;;;18.70;10.67;;;;;;;;;;10273521;28;20298;-73
2021/04/19 22:07:32;;;;;;;15.83;9.07;;;;;;;;;;10272277;28;20243;-73
2021/04/19 22:12:49;;;;;;;18.57;11.30;;;;;;;;;;10276302;28;20306;-70
2021/04/19 22:17:51;;;;;;;16.13;9.77;;;;;;;;;;10278631;28;20660;-72
2021/04/19 22:22:53;;;;;;;17.43;10.10;;;;;;;;;;10273778;28;20238;-74
2021/04/19 22:27:57;;;;;;;17.87;10.33;;;;;;;;;;10272947;28;20272;-73
2021/04/19 22:33:00;;;;;;;16.00;9.90;;;;;;;;;;10272377;28;20231;-72
2021/04/19 22:38:02;;;;;;;18.27;10.10;;;;;;;;;;10275056;28;20247;-73
2021/04/19 22:43:05;;;;;;;17.97;10.17;;;;;;;;;;10271723;28;20737;-75
2021/04/19 22:48:07;;;;;;;17.13;9.83;;;;;;;;;;10274116;28;20219;-73
2021/04/19 22:53:09;;;;;;;16.87;10.33;;;;;;;;;;10268248;28;20712;-72
2021/04/19 22:58:12;;;;;;;17.33;9.83;;;;;;;;;;10271556;28;20250;-71
2021/04/19 23:03:13;;;;;;;17.97;10.07;;;;;;;;;;10269941;28;20315;-73
2021/04/19 23:08:15;;;;;;;19.37;10.30;;;;;;;;;;10271501;28;20287;-75
2021/04/19 23:13:17;;;;;;;17.70;11.13;;;;;;;;;;10277579;28;20241;-73
2021/04/19 23:18:19;;;;;;;17.53;9.33;;;;;;;;;;10274671;28;20649;-72
2021/04/19 23:23:20;;;;;;;19.93;9.93;;;;;;;;;;10271036;28;20314;-73
2021/04/19 23:28:23;;;;;;;18.40;10.53;;;;;;;;;;10270351;28;20597;-73
2021/04/19 23:33:24;;;;;;;17.90;10.80;;;;;;;;;;10275961;28;20303;-74
2021/04/19 23:38:26;;;;;;;19.33;10.27;;;;;;;;;;10277585;28;20287;-74
2021/04/19 23:43:28;;;;;;;18.67;9.97;;;;;;;;;;10287838;28;20269;-74
2021/04/19 23:48:30;;;;;;;21.13;11.73;;;;;;;;;;10286120;28;20955;-74
2021/04/19 23:53:31;;;;;;;21.23;11.57;;;;;;;;;;10289005;28;20184;-75
2021/04/19 23:58:34;;;;;;;17.47;10.53;;;;;;;;;;10285426;28;20328;-74
